sensor_id;sensor_type;location;lat;lon;timestamp;temperature;humidity
41664;DHT22;27353;50.906;7.248;2024-02-04T00:00:23;9.50;99.90
41664;DHT22;27353;50.906;7.248;2024-02-04T00:02:49;9.50;99.90
41664;DHT22;27353;50.906;7.248;2024-02-04T00:05:15;9.50;99.90
41664;DHT22;27353;50.906;7.248;2024-02-04T00:07:41;9.50;99.90
41664;DHT22;27353;50.906;7.248;2024-02-04T00:10:07;9.50;99.90
41664;DHT22;27353;50.906;7.248;2024-02-04T00:12:32;9.50;99.90
41664;DHT22;27353;50.906;7.248;2024-02-04T00:14:58;9.50;99.90
41664;DHT22;27353;50.906;7.248;2024-02-04T00:17:23;9.50;99.90
41664;DHT22;27353;50.906;7.248;2024-02-04T00:19:56;9.50;99.90
41664;DHT22;27353;50.906;7.248;2024-02-04T00:22:22;9.50;99.90
41664;DHT22;27353;50.906;7.248;2024-02-04T00:24:47;9.50;99.90
41664;DHT22;27353;50.906;7.248;2024-02-04T00:27:13;9.40;99.90
41664;DHT22;27353;50.906;7.248;2024-02-04T00:29:38;9.40;99.90
41664;DHT22;27353;50.906;7.248;2024-02-04T00:32:04;9.40;99.90
41664;DHT22;27353;50.906;7.248;2024-02-04T00:34:30;9.40;99.90
41664;DHT22;27353;50.906;7.248;2024-02-04T00:36:55;9.40;99.90
41664;DHT22;27353;50.906;7.248;2024-02-04T00:39:21;9.40;99.90
41664;DHT22;27353;50.906;7.248;2024-02-04T00:41:47;9.40;99.90
41664;DHT22;27353;50.906;7.248;2024-02-04T00:44:12;9.30;99.90
41664;DHT22;27353;50.906;7.248;2024-02-04T00:46:38;9.30;99.90
41664;DHT22;27353;50.906;7.248;2024-02-04T00:49:03;9.30;99.90
41664;DHT22;27353;50.906;7.248;2024-02-04T00:51:29;9.30;99.90
41664;DHT22;27353;50.906;7.248;2024-02-04T00:53:55;9.30;99.90
41664;DHT22;27353;50.906;7.248;2024-02-04T00:56:20;9.30;99.90
41664;DHT22;27353;50.906;7.248;2024-02-04T00:58:46;9.30;99.90
41664;DHT22;27353;50.906;7.248;2024-02-04T01:01:12;9.30;99.90
41664;DHT22;27353;50.906;7.248;2024-02-04T01:03:37;9.30;99.90
41664;DHT22;27353;50.906;7.248;2024-02-04T01:06:03;9.30;99.90
41664;DHT22;27353;50.906;7.248;2024-02-04T01:08:29;9.30;99.90
41664;DHT22;27353;50.906;7.248;2024-02-04T01:10:55;9.30;99.90
41664;DHT22;27353;50.906;7.248;2024-02-04T01:13:20;9.20;99.90
41664;DHT22;27353;50.906;7.248;2024-02-04T01:15:46;9.20;99.90
41664;DHT22;27353;50.906;7.248;2024-02-04T01:18:12;9.20;99.90
41664;DHT22;27353;50.906;7.248;2024-02-04T01:20:37;9.30;99.90
41664;DHT22;27353;50.906;7.248;2024-02-04T01:23:03;9.20;99.90
41664;DHT22;27353;50.906;7.248;2024-02-04T01:25:28;9.20;99.90
41664;DHT22;27353;50.906;7.248;2024-02-04T01:27:54;9.20;99.90
41664;DHT22;27353;50.906;7.248;2024-02-04T01:30:20;9.20;99.90
41664;DHT22;27353;50.906;7.248;2024-02-04T01:32:45;9.20;99.90
41664;DHT22;27353;50.906;7.248;2024-02-04T01:35:11;9.20;99.90
41664;DHT22;27353;50.906;7.248;2024-02-04T01:37:37;9.20;99.90
41664;DHT22;27353;50.906;7.248;2024-02-04T01:40:03;9.20;99.90
41664;DHT22;27353;50.906;7.248;2024-02-04T01:42:31;9.20;99.90
41664;DHT22;27353;50.906;7.248;2024-02-04T01:44:56;9.10;99.90
41664;DHT22;27353;50.906;7.248;2024-02-04T01:47:22;9.20;99.90
41664;DHT22;27353;50.906;7.248;2024-02-04T01:49:48;9.20;99.90
41664;DHT22;27353;50.906;7.248;2024-02-04T01:52:14;9.20;99.90
41664;DHT22;27353;50.906;7.248;2024-02-04T01:54:41;9.10;99.90
41664;DHT22;27353;50.906;7.248;2024-02-04T01:57:10;9.20;99.90
41664;DHT22;27353;50.906;7.248;2024-02-04T01:59:38;9.20;99.90
41664;DHT22;27353;50.906;7.248;2024-02-04T02:02:05;9.20;99.90
41664;DHT22;27353;50.906;7.248;2024-02-04T02:04:31;9.20;99.90
41664;DHT22;27353;50.906;7.248;2024-02-04T02:06:57;9.20;99.90
41664;DHT22;27353;50.906;7.248;2024-02-04T02:09:25;9.20;99.90
41664;DHT22;27353;50.906;7.248;2024-02-04T02:12:24;9.20;99.90
41664;DHT22;27353;50.906;7.248;2024-02-04T02:14:58;9.20;99.90
41664;DHT22;27353;50.906;7.248;2024-02-04T02:20:21;9.20;99.90
41664;DHT22;27353;50.906;7.248;2024-02-04T02:22:49;9.20;99.90
41664;DHT22;27353;50.906;7.248;2024-02-04T02:25:19;9.30;99.90
41664;DHT22;27353;50.906;7.248;2024-02-04T02:27:49;9.20;99.90
41664;DHT22;27353;50.906;7.248;2024-02-04T02:30:15;9.20;99.90
41664;DHT22;27353;50.906;7.248;2024-02-04T02:32:43;9.30;99.90
41664;DHT22;27353;50.906;7.248;2024-02-04T02:35:09;9.30;99.90
41664;DHT22;27353;50.906;7.248;2024-02-04T02:40:05;9.20;99.90
41664;DHT22;27353;50.906;7.248;2024-02-04T02:42:31;9.30;99.90
41664;DHT22;27353;50.906;7.248;2024-02-04T02:44:58;9.30;99.90
41664;DHT22;27353;50.906;7.248;2024-02-04T02:47:24;9.30;99.90
41664;DHT22;27353;50.906;7.248;2024-02-04T02:49:53;9.30;99.90
41664;DHT22;27353;50.906;7.248;2024-02-04T02:52:21;9.30;99.90
41664;DHT22;27353;50.906;7.248;2024-02-04T02:54:47;9.30;99.90
41664;DHT22;27353;50.906;7.248;2024-02-04T02:57:12;9.30;99.90
41664;DHT22;27353;50.906;7.248;2024-02-04T02:59:38;9.30;99.90
41664;DHT22;27353;50.906;7.248;2024-02-04T03:02:04;9.40;99.90
41664;DHT22;27353;50.906;7.248;2024-02-04T03:04:29;9.40;99.90
41664;DHT22;27353;50.906;7.248;2024-02-04T03:06:55;9.40;99.90
41664;DHT22;27353;50.906;7.248;2024-02-04T03:09:21;9.40;99.90
41664;DHT22;27353;50.906;7.248;2024-02-04T03:11:46;9.40;99.90
41664;DHT22;27353;50.906;7.248;2024-02-04T03:14:15;9.40;99.90
41664;DHT22;27353;50.906;7.248;2024-02-04T03:16:44;9.40;99.90
41664;DHT22;27353;50.906;7.248;2024-02-04T03:19:10;9.40;99.90
41664;DHT22;27353;50.906;7.248;2024-02-04T03:21:36;9.40;99.90
41664;DHT22;27353;50.906;7.248;2024-02-04T03:24:01;9.40;99.90
41664;DHT22;27353;50.906;7.248;2024-02-04T03:26:27;9.50;99.90
41664;DHT22;27353;50.906;7.248;2024-02-04T03:28:53;9.50;99.90
41664;DHT22;27353;50.906;7.248;2024-02-04T03:31:22;9.50;99.90
41664;DHT22;27353;50.906;7.248;2024-02-04T03:33:48;9.40;99.90
41664;DHT22;27353;50.906;7.248;2024-02-04T03:36:18;9.50;99.90
41664;DHT22;27353;50.906;7.248;2024-02-04T03:38:43;9.50;99.90
41664;DHT22;27353;50.906;7.248;2024-02-04T03:41:10;9.50;99.90
41664;DHT22;27353;50.906;7.248;2024-02-04T03:43:38;9.50;99.90
41664;DHT22;27353;50.906;7.248;2024-02-04T03:46:04;9.50;99.90
41664;DHT22;27353;50.906;7.248;2024-02-04T03:48:29;9.50;99.90
41664;DHT22;27353;50.906;7.248;2024-02-04T03:50:55;9.50;99.90
41664;DHT22;27353;50.906;7.248;2024-02-04T03:53:21;9.50;99.90
41664;DHT22;27353;50.906;7.248;2024-02-04T03:55:49;9.50;99.90
41664;DHT22;27353;50.906;7.248;2024-02-04T03:58:14;9.50;99.90
41664;DHT22;27353;50.906;7.248;2024-02-04T04:00:40;9.50;99.90
41664;DHT22;27353;50.906;7.248;2024-02-04T04:03:06;9.60;99.90
41664;DHT22;27353;50.906;7.248;2024-02-04T04:05:32;9.60;99.90
41664;DHT22;27353;50.906;7.248;2024-02-04T04:07:57;9.60;99.90
41664;DHT22;27353;50.906;7.248;2024-02-04T04:10:23;9.60;99.90
41664;DHT22;27353;50.906;7.248;2024-02-04T04:12:48;9.60;99.90
41664;DHT22;27353;50.906;7.248;2024-02-04T04:15:14;9.60;99.90
41664;DHT22;27353;50.906;7.248;2024-02-04T04:17:40;9.60;99.90
41664;DHT22;27353;50.906;7.248;2024-02-04T04:20:07;9.60;99.90
41664;DHT22;27353;50.906;7.248;2024-02-04T04:22:33;9.60;99.90
41664;DHT22;27353;50.906;7.248;2024-02-04T04:24:58;9.60;99.90
41664;DHT22;27353;50.906;7.248;2024-02-04T04:27:24;9.60;99.90
41664;DHT22;27353;50.906;7.248;2024-02-04T04:29:49;9.60;99.90
41664;DHT22;27353;50.906;7.248;2024-02-04T04:32:15;9.60;99.90
41664;DHT22;27353;50.906;7.248;2024-02-04T04:34:41;9.70;99.90
41664;DHT22;27353;50.906;7.248;2024-02-04T04:37:06;9.60;99.90
41664;DHT22;27353;50.906;7.248;2024-02-04T04:39:32;9.60;99.90
41664;DHT22;27353;50.906;7.248;2024-02-04T04:41:58;9.70;99.90
41664;DHT22;27353;50.906;7.248;2024-02-04T04:44:23;9.70;99.90
41664;DHT22;27353;50.906;7.248;2024-02-04T04:46:49;9.60;99.90
41664;DHT22;27353;50.906;7.248;2024-02-04T04:49:15;9.60;99.90
41664;DHT22;27353;50.906;7.248;2024-02-04T04:51:45;9.60;99.90
41664;DHT22;27353;50.906;7.248;2024-02-04T04:54:11;9.70;99.90
41664;DHT22;27353;50.906;7.248;2024-02-04T04:56:40;9.60;99.90
41664;DHT22;27353;50.906;7.248;2024-02-04T04:59:07;9.70;99.90
41664;DHT22;27353;50.906;7.248;2024-02-04T05:01:33;9.70;99.90
41664;DHT22;27353;50.906;7.248;2024-02-04T05:03:59;9.70;99.90
41664;DHT22;27353;50.906;7.248;2024-02-04T05:06:25;9.70;99.90
41664;DHT22;27353;50.906;7.248;2024-02-04T05:08:50;9.70;99.90
41664;DHT22;27353;50.906;7.248;2024-02-04T05:11:16;9.70;99.90
41664;DHT22;27353;50.906;7.248;2024-02-04T05:13:42;9.70;99.90
41664;DHT22;27353;50.906;7.248;2024-02-04T05:16:07;9.70;99.90
41664;DHT22;27353;50.906;7.248;2024-02-04T05:18:33;9.70;99.90
41664;DHT22;27353;50.906;7.248;2024-02-04T05:20:58;9.70;99.90
41664;DHT22;27353;50.906;7.248;2024-02-04T05:23:26;9.70;99.90
41664;DHT22;27353;50.906;7.248;2024-02-04T05:25:51;9.70;99.90
41664;DHT22;27353;50.906;7.248;2024-02-04T05:28:17;9.70;99.90
41664;DHT22;27353;50.906;7.248;2024-02-04T05:30:42;9.70;99.90
41664;DHT22;27353;50.906;7.248;2024-02-04T05:33:08;9.70;99.90
41664;DHT22;27353;50.906;7.248;2024-02-04T05:35:33;9.70;99.90
41664;DHT22;27353;50.906;7.248;2024-02-04T05:38:01;9.70;99.90
41664;DHT22;27353;50.906;7.248;2024-02-04T05:40:27;9.70;99.90
41664;DHT22;27353;50.906;7.248;2024-02-04T05:42:52;9.70;99.90
41664;DHT22;27353;50.906;7.248;2024-02-04T05:45:18;9.70;99.90
41664;DHT22;27353;50.906;7.248;2024-02-04T05:47:43;9.70;99.90
41664;DHT22;27353;50.906;7.248;2024-02-04T05:50:09;9.70;99.90
41664;DHT22;27353;50.906;7.248;2024-02-04T05:52:34;9.70;99.90
41664;DHT22;27353;50.906;7.248;2024-02-04T05:55:00;9.70;99.90
41664;DHT22;27353;50.906;7.248;2024-02-04T05:57:26;9.70;99.90
41664;DHT22;27353;50.906;7.248;2024-02-04T05:59:51;9.70;99.90
41664;DHT22;27353;50.906;7.248;2024-02-04T06:02:18;9.70;99.90
41664;DHT22;27353;50.906;7.248;2024-02-04T06:04:44;9.70;99.90
41664;DHT22;27353;50.906;7.248;2024-02-04T06:07:09;9.60;99.90
41664;DHT22;27353;50.906;7.248;2024-02-04T06:09:35;9.70;99.90
41664;DHT22;27353;50.906;7.248;2024-02-04T06:12:01;9.60;99.90
41664;DHT22;27353;50.906;7.248;2024-02-04T06:14:27;9.60;99.90
41664;DHT22;27353;50.906;7.248;2024-02-04T06:16:53;9.60;99.90
41664;DHT22;27353;50.906;7.248;2024-02-04T06:19:18;9.60;99.90
41664;DHT22;27353;50.906;7.248;2024-02-04T06:21:46;9.60;99.90
41664;DHT22;27353;50.906;7.248;2024-02-04T06:24:11;9.60;99.90
41664;DHT22;27353;50.906;7.248;2024-02-04T06:26:38;9.60;99.90
41664;DHT22;27353;50.906;7.248;2024-02-04T06:29:04;9.60;99.90
41664;DHT22;27353;50.906;7.248;2024-02-04T06:31:30;9.60;99.90
41664;DHT22;27353;50.906;7.248;2024-02-04T06:33:55;9.60;99.90
41664;DHT22;27353;50.906;7.248;2024-02-04T06:36:21;9.60;99.90
41664;DHT22;27353;50.906;7.248;2024-02-04T06:38:47;9.60;99.90
41664;DHT22;27353;50.906;7.248;2024-02-04T06:41:12;9.70;99.90
41664;DHT22;27353;50.906;7.248;2024-02-04T06:43:38;9.60;99.90
41664;DHT22;27353;50.906;7.248;2024-02-04T06:46:04;9.60;99.90
41664;DHT22;27353;50.906;7.248;2024-02-04T06:48:30;9.60;99.90
41664;DHT22;27353;50.906;7.248;2024-02-04T06:50:55;9.60;99.90
41664;DHT22;27353;50.906;7.248;2024-02-04T06:53:21;9.70;99.90
41664;DHT22;27353;50.906;7.248;2024-02-04T06:55:47;9.70;99.90
41664;DHT22;27353;50.906;7.248;2024-02-04T06:58:12;9.70;99.90
41664;DHT22;27353;50.906;7.248;2024-02-04T07:00:38;9.70;99.90
41664;DHT22;27353;50.906;7.248;2024-02-04T07:03:03;9.70;99.90
41664;DHT22;27353;50.906;7.248;2024-02-04T07:05:29;9.70;99.90
41664;DHT22;27353;50.906;7.248;2024-02-04T07:07:56;9.70;99.90
41664;DHT22;27353;50.906;7.248;2024-02-04T07:10:22;9.70;99.90
41664;DHT22;27353;50.906;7.248;2024-02-04T07:12:47;9.70;99.90
41664;DHT22;27353;50.906;7.248;2024-02-04T07:15:13;9.70;99.90
41664;DHT22;27353;50.906;7.248;2024-02-04T07:17:38;9.70;99.90
41664;DHT22;27353;50.906;7.248;2024-02-04T07:20:04;9.70;99.90
41664;DHT22;27353;50.906;7.248;2024-02-04T07:22:31;9.70;99.90
41664;DHT22;27353;50.906;7.248;2024-02-04T07:24:56;9.70;99.90
41664;DHT22;27353;50.906;7.248;2024-02-04T07:27:22;9.60;99.90
41664;DHT22;27353;50.906;7.248;2024-02-04T07:29:48;9.60;99.90
41664;DHT22;27353;50.906;7.248;2024-02-04T07:32:17;9.60;99.90
41664;DHT22;27353;50.906;7.248;2024-02-04T07:34:42;9.60;99.90
41664;DHT22;27353;50.906;7.248;2024-02-04T07:37:08;9.60;99.90
41664;DHT22;27353;50.906;7.248;2024-02-04T07:39:33;9.60;99.90
41664;DHT22;27353;50.906;7.248;2024-02-04T07:41:59;9.60;99.90
41664;DHT22;27353;50.906;7.248;2024-02-04T07:44:27;9.60;99.90
41664;DHT22;27353;50.906;7.248;2024-02-04T07:46:53;9.60;99.90
41664;DHT22;27353;50.906;7.248;2024-02-04T07:49:18;9.60;99.90
41664;DHT22;27353;50.906;7.248;2024-02-04T07:51:44;9.60;99.90
41664;DHT22;27353;50.906;7.248;2024-02-04T07:54:10;9.60;99.90
41664;DHT22;27353;50.906;7.248;2024-02-04T07:56:35;9.60;99.90
41664;DHT22;27353;50.906;7.248;2024-02-04T07:59:01;9.60;99.90
41664;DHT22;27353;50.906;7.248;2024-02-04T08:01:27;9.60;99.90
41664;DHT22;27353;50.906;7.248;2024-02-04T08:03:52;9.60;99.90
41664;DHT22;27353;50.906;7.248;2024-02-04T08:06:18;9.70;99.90
41664;DHT22;27353;50.906;7.248;2024-02-04T08:08:43;9.60;99.90
41664;DHT22;27353;50.906;7.248;2024-02-04T08:11:10;9.70;99.90
41664;DHT22;27353;50.906;7.248;2024-02-04T08:13:36;9.70;99.90
41664;DHT22;27353;50.906;7.248;2024-02-04T08:16:01;9.70;99.90
41664;DHT22;27353;50.906;7.248;2024-02-04T08:18:27;9.70;99.90
41664;DHT22;27353;50.906;7.248;2024-02-04T08:20:52;9.70;99.90
41664;DHT22;27353;50.906;7.248;2024-02-04T08:23:18;9.70;99.90
41664;DHT22;27353;50.906;7.248;2024-02-04T08:25:44;9.70;99.90
41664;DHT22;27353;50.906;7.248;2024-02-04T08:28:10;9.80;99.90
41664;DHT22;27353;50.906;7.248;2024-02-04T08:30:35;9.80;99.90
41664;DHT22;27353;50.906;7.248;2024-02-04T08:33:01;9.70;99.90
41664;DHT22;27353;50.906;7.248;2024-02-04T08:35:26;9.80;99.90
41664;DHT22;27353;50.906;7.248;2024-02-04T08:37:52;9.80;99.90
41664;DHT22;27353;50.906;7.248;2024-02-04T08:40:18;9.80;99.90
41664;DHT22;27353;50.906;7.248;2024-02-04T08:42:43;9.80;99.90
41664;DHT22;27353;50.906;7.248;2024-02-04T08:45:09;9.80;99.90
41664;DHT22;27353;50.906;7.248;2024-02-04T08:47:35;9.90;99.90
41664;DHT22;27353;50.906;7.248;2024-02-04T08:50:01;9.80;99.90
41664;DHT22;27353;50.906;7.248;2024-02-04T08:52:26;9.80;99.90
41664;DHT22;27353;50.906;7.248;2024-02-04T08:54:52;9.90;99.90
41664;DHT22;27353;50.906;7.248;2024-02-04T08:57:17;9.90;99.90
41664;DHT22;27353;50.906;7.248;2024-02-04T08:59:43;9.90;99.90
41664;DHT22;27353;50.906;7.248;2024-02-04T09:02:08;9.90;99.90
41664;DHT22;27353;50.906;7.248;2024-02-04T09:04:34;9.90;99.90
41664;DHT22;27353;50.906;7.248;2024-02-04T09:07:06;10.00;99.90
41664;DHT22;27353;50.906;7.248;2024-02-04T09:09:32;9.90;99.90
41664;DHT22;27353;50.906;7.248;2024-02-04T09:11:57;10.00;99.90
41664;DHT22;27353;50.906;7.248;2024-02-04T09:14:23;10.00;99.90
41664;DHT22;27353;50.906;7.248;2024-02-04T09:16:48;10.00;99.90
41664;DHT22;27353;50.906;7.248;2024-02-04T09:19:14;9.90;99.90
41664;DHT22;27353;50.906;7.248;2024-02-04T09:21:39;9.90;99.90
41664;DHT22;27353;50.906;7.248;2024-02-04T09:24:05;9.90;99.90
41664;DHT22;27353;50.906;7.248;2024-02-04T09:26:31;10.00;99.90
41664;DHT22;27353;50.906;7.248;2024-02-04T09:28:56;10.00;99.90
41664;DHT22;27353;50.906;7.248;2024-02-04T09:31:22;10.10;99.90
41664;DHT22;27353;50.906;7.248;2024-02-04T09:33:48;10.00;99.90
41664;DHT22;27353;50.906;7.248;2024-02-04T09:36:13;10.10;99.90
41664;DHT22;27353;50.906;7.248;2024-02-04T09:38:40;10.10;99.90
41664;DHT22;27353;50.906;7.248;2024-02-04T09:41:05;10.00;99.90
41664;DHT22;27353;50.906;7.248;2024-02-04T09:43:35;10.00;99.90
41664;DHT22;27353;50.906;7.248;2024-02-04T09:46:01;10.00;99.90
41664;DHT22;27353;50.906;7.248;2024-02-04T09:48:32;10.10;99.90
41664;DHT22;27353;50.906;7.248;2024-02-04T09:50:58;10.00;99.90
41664;DHT22;27353;50.906;7.248;2024-02-04T09:53:32;10.10;99.90
41664;DHT22;27353;50.906;7.248;2024-02-04T09:56:01;10.10;99.90
41664;DHT22;27353;50.906;7.248;2024-02-04T09:58:26;10.20;99.90
41664;DHT22;27353;50.906;7.248;2024-02-04T10:00:53;10.30;99.90
41664;DHT22;27353;50.906;7.248;2024-02-04T10:03:19;10.30;99.90
41664;DHT22;27353;50.906;7.248;2024-02-04T10:05:46;10.30;99.90
41664;DHT22;27353;50.906;7.248;2024-02-04T10:08:13;10.30;99.90
41664;DHT22;27353;50.906;7.248;2024-02-04T10:10:39;10.30;99.90
41664;DHT22;27353;50.906;7.248;2024-02-04T10:13:08;10.30;99.90
41664;DHT22;27353;50.906;7.248;2024-02-04T10:15:34;10.40;99.90
41664;DHT22;27353;50.906;7.248;2024-02-04T10:18:03;10.40;99.90
41664;DHT22;27353;50.906;7.248;2024-02-04T10:20:29;10.40;99.90
41664;DHT22;27353;50.906;7.248;2024-02-04T10:22:55;10.40;99.90
41664;DHT22;27353;50.906;7.248;2024-02-04T10:25:21;10.40;99.90
41664;DHT22;27353;50.906;7.248;2024-02-04T10:27:46;10.40;99.90
41664;DHT22;27353;50.906;7.248;2024-02-04T10:30:13;10.40;99.90
41664;DHT22;27353;50.906;7.248;2024-02-04T10:32:39;10.40;99.90
41664;DHT22;27353;50.906;7.248;2024-02-04T10:35:05;10.50;99.90
41664;DHT22;27353;50.906;7.248;2024-02-04T10:37:31;10.50;99.90
41664;DHT22;27353;50.906;7.248;2024-02-04T10:39:56;10.50;99.90
41664;DHT22;27353;50.906;7.248;2024-02-04T10:42:24;10.40;99.90
41664;DHT22;27353;50.906;7.248;2024-02-04T10:44:52;10.40;99.90
41664;DHT22;27353;50.906;7.248;2024-02-04T10:47:22;10.40;99.90
41664;DHT22;27353;50.906;7.248;2024-02-04T10:49:52;10.40;99.90
41664;DHT22;27353;50.906;7.248;2024-02-04T10:52:22;10.40;99.90
41664;DHT22;27353;50.906;7.248;2024-02-04T10:54:49;10.40;99.90
41664;DHT22;27353;50.906;7.248;2024-02-04T10:57:20;10.40;99.90
41664;DHT22;27353;50.906;7.248;2024-02-04T10:59:47;10.30;99.90
41664;DHT22;27353;50.906;7.248;2024-02-04T11:02:17;10.40;99.90
41664;DHT22;27353;50.906;7.248;2024-02-04T11:04:44;10.30;99.90
41664;DHT22;27353;50.906;7.248;2024-02-04T11:07:12;10.40;99.90
41664;DHT22;27353;50.906;7.248;2024-02-04T11:09:39;10.40;99.90
41664;DHT22;27353;50.906;7.248;2024-02-04T11:12:11;10.40;99.90
41664;DHT22;27353;50.906;7.248;2024-02-04T11:14:40;10.40;99.90
41664;DHT22;27353;50.906;7.248;2024-02-04T11:25:58;10.40;99.90
41664;DHT22;27353;50.906;7.248;2024-02-04T11:28:25;10.30;99.90
41664;DHT22;27353;50.906;7.248;2024-02-04T11:30:54;10.30;99.90
41664;DHT22;27353;50.906;7.248;2024-02-04T11:33:21;10.30;99.90
41664;DHT22;27353;50.906;7.248;2024-02-04T11:36:12;10.30;99.90
41664;DHT22;27353;50.906;7.248;2024-02-04T11:38:37;10.30;99.90
41664;DHT22;27353;50.906;7.248;2024-02-04T11:41:03;10.30;99.90
41664;DHT22;27353;50.906;7.248;2024-02-04T11:43:31;10.40;99.90
41664;DHT22;27353;50.906;7.248;2024-02-04T11:45:57;10.40;99.90
41664;DHT22;27353;50.906;7.248;2024-02-04T11:48:29;10.40;99.90
41664;DHT22;27353;50.906;7.248;2024-02-04T11:50:57;10.50;99.90
41664;DHT22;27353;50.906;7.248;2024-02-04T11:53:23;10.50;99.90
41664;DHT22;27353;50.906;7.248;2024-02-04T11:55:52;10.50;99.90
41664;DHT22;27353;50.906;7.248;2024-02-04T11:58:18;10.50;99.90
41664;DHT22;27353;50.906;7.248;2024-02-04T12:00:45;10.50;99.90
41664;DHT22;27353;50.906;7.248;2024-02-04T12:03:11;10.50;99.90
41664;DHT22;27353;50.906;7.248;2024-02-04T12:05:37;10.40;99.90
41664;DHT22;27353;50.906;7.248;2024-02-04T12:08:07;10.40;99.90
41664;DHT22;27353;50.906;7.248;2024-02-04T12:10:34;10.40;99.90
41664;DHT22;27353;50.906;7.248;2024-02-04T12:13:04;10.40;99.90
41664;DHT22;27353;50.906;7.248;2024-02-04T12:15:30;10.40;99.90
41664;DHT22;27353;50.906;7.248;2024-02-04T12:18:10;10.40;99.90
41664;DHT22;27353;50.906;7.248;2024-02-04T12:20:37;10.50;99.90
41664;DHT22;27353;50.906;7.248;2024-02-04T12:23:03;10.50;99.90
41664;DHT22;27353;50.906;7.248;2024-02-04T12:25:30;10.50;99.90
41664;DHT22;27353;50.906;7.248;2024-02-04T12:27:58;10.50;99.90
41664;DHT22;27353;50.906;7.248;2024-02-04T12:30:24;10.50;99.90
41664;DHT22;27353;50.906;7.248;2024-02-04T12:33:00;10.50;99.90
41664;DHT22;27353;50.906;7.248;2024-02-04T12:35:27;10.50;99.90
41664;DHT22;27353;50.906;7.248;2024-02-04T12:37:57;10.40;99.90
41664;DHT22;27353;50.906;7.248;2024-02-04T12:40:30;10.50;99.90
41664;DHT22;27353;50.906;7.248;2024-02-04T12:42:59;10.40;99.90
41664;DHT22;27353;50.906;7.248;2024-02-04T12:45:27;10.40;99.90
41664;DHT22;27353;50.906;7.248;2024-02-04T12:47:57;10.40;99.90
41664;DHT22;27353;50.906;7.248;2024-02-04T12:50:23;10.40;99.90
41664;DHT22;27353;50.906;7.248;2024-02-04T12:53:09;10.40;99.90
41664;DHT22;27353;50.906;7.248;2024-02-04T12:55:37;10.40;99.90
41664;DHT22;27353;50.906;7.248;2024-02-04T12:58:06;10.40;99.90
41664;DHT22;27353;50.906;7.248;2024-02-04T13:00:34;10.30;99.90
41664;DHT22;27353;50.906;7.248;2024-02-04T13:03:00;10.30;99.90
41664;DHT22;27353;50.906;7.248;2024-02-04T13:05:26;10.30;99.90
41664;DHT22;27353;50.906;7.248;2024-02-04T13:07:56;10.30;99.90
41664;DHT22;27353;50.906;7.248;2024-02-04T13:10:25;10.30;99.90
41664;DHT22;27353;50.906;7.248;2024-02-04T13:13:05;10.30;99.90
41664;DHT22;27353;50.906;7.248;2024-02-04T13:15:39;10.30;99.90
41664;DHT22;27353;50.906;7.248;2024-02-04T13:18:05;10.30;99.90
41664;DHT22;27353;50.906;7.248;2024-02-04T13:20:31;10.30;99.90
41664;DHT22;27353;50.906;7.248;2024-02-04T13:22:57;10.30;99.90
41664;DHT22;27353;50.906;7.248;2024-02-04T13:25:23;10.30;99.90
41664;DHT22;27353;50.906;7.248;2024-02-04T13:27:49;10.30;99.90
41664;DHT22;27353;50.906;7.248;2024-02-04T13:30:16;10.30;99.90
41664;DHT22;27353;50.906;7.248;2024-02-04T13:32:42;10.20;99.90
41664;DHT22;27353;50.906;7.248;2024-02-04T13:35:08;10.20;99.90
41664;DHT22;27353;50.906;7.248;2024-02-04T13:37:37;10.20;99.90
41664;DHT22;27353;50.906;7.248;2024-02-04T13:40:04;10.20;99.90
41664;DHT22;27353;50.906;7.248;2024-02-04T13:42:31;10.20;99.90
41664;DHT22;27353;50.906;7.248;2024-02-04T13:44:57;10.20;99.90
41664;DHT22;27353;50.906;7.248;2024-02-04T13:47:23;10.20;99.90
41664;DHT22;27353;50.906;7.248;2024-02-04T13:49:48;10.20;99.90
41664;DHT22;27353;50.906;7.248;2024-02-04T13:52:14;10.20;99.90
41664;DHT22;27353;50.906;7.248;2024-02-04T13:54:39;10.20;99.90
41664;DHT22;27353;50.906;7.248;2024-02-04T13:57:05;10.20;99.90
41664;DHT22;27353;50.906;7.248;2024-02-04T13:59:31;10.20;99.90
41664;DHT22;27353;50.906;7.248;2024-02-04T14:01:56;10.20;99.90
41664;DHT22;27353;50.906;7.248;2024-02-04T14:04:22;10.20;99.90
41664;DHT22;27353;50.906;7.248;2024-02-04T14:06:47;10.20;99.90
41664;DHT22;27353;50.906;7.248;2024-02-04T14:09:13;10.20;99.90
41664;DHT22;27353;50.906;7.248;2024-02-04T14:11:39;10.20;99.90
41664;DHT22;27353;50.906;7.248;2024-02-04T14:14:04;10.20;99.90
41664;DHT22;27353;50.906;7.248;2024-02-04T14:16:30;10.20;99.90
41664;DHT22;27353;50.906;7.248;2024-02-04T14:18:55;10.20;99.90
41664;DHT22;27353;50.906;7.248;2024-02-04T14:21:21;10.20;99.90
41664;DHT22;27353;50.906;7.248;2024-02-04T14:23:48;10.20;99.90
41664;DHT22;27353;50.906;7.248;2024-02-04T14:26:20;10.20;99.90
41664;DHT22;27353;50.906;7.248;2024-02-04T14:28:46;10.20;99.90
41664;DHT22;27353;50.906;7.248;2024-02-04T14:31:11;10.20;99.90
41664;DHT22;27353;50.906;7.248;2024-02-04T14:33:37;10.20;99.90
41664;DHT22;27353;50.906;7.248;2024-02-04T14:36:03;10.20;99.90
41664;DHT22;27353;50.906;7.248;2024-02-04T14:38:29;10.20;99.90
41664;DHT22;27353;50.906;7.248;2024-02-04T14:40:58;10.20;99.90
41664;DHT22;27353;50.906;7.248;2024-02-04T14:43:24;10.20;99.90
41664;DHT22;27353;50.906;7.248;2024-02-04T14:45:50;10.20;99.90
41664;DHT22;27353;50.906;7.248;2024-02-04T14:48:15;10.20;99.90
41664;DHT22;27353;50.906;7.248;2024-02-04T14:50:41;10.20;99.90
41664;DHT22;27353;50.906;7.248;2024-02-04T14:53:06;10.20;99.90
41664;DHT22;27353;50.906;7.248;2024-02-04T14:55:32;10.30;99.90
41664;DHT22;27353;50.906;7.248;2024-02-04T14:57:58;10.20;99.90
41664;DHT22;27353;50.906;7.248;2024-02-04T15:00:24;10.30;99.90
41664;DHT22;27353;50.906;7.248;2024-02-04T15:02:51;10.30;99.90
41664;DHT22;27353;50.906;7.248;2024-02-04T15:05:17;10.30;99.90
41664;DHT22;27353;50.906;7.248;2024-02-04T15:07:43;10.30;99.90
41664;DHT22;27353;50.906;7.248;2024-02-04T15:10:08;10.30;99.90
41664;DHT22;27353;50.906;7.248;2024-02-04T15:12:38;10.30;99.90
41664;DHT22;27353;50.906;7.248;2024-02-04T15:15:05;10.30;99.90
41664;DHT22;27353;50.906;7.248;2024-02-04T15:17:35;10.30;99.90
41664;DHT22;27353;50.906;7.248;2024-02-04T15:20:01;10.30;99.90
41664;DHT22;27353;50.906;7.248;2024-02-04T15:22:27;10.30;99.90
41664;DHT22;27353;50.906;7.248;2024-02-04T15:24:53;10.30;99.90
41664;DHT22;27353;50.906;7.248;2024-02-04T15:27:19;10.30;99.90
41664;DHT22;27353;50.906;7.248;2024-02-04T15:29:47;10.30;99.90
41664;DHT22;27353;50.906;7.248;2024-02-04T15:32:14;10.30;99.90
41664;DHT22;27353;50.906;7.248;2024-02-04T15:34:41;10.30;99.90
41664;DHT22;27353;50.906;7.248;2024-02-04T15:37:07;10.30;99.90
41664;DHT22;27353;50.906;7.248;2024-02-04T15:39:34;10.20;99.90
41664;DHT22;27353;50.906;7.248;2024-02-04T15:42:00;10.20;99.90
41664;DHT22;27353;50.906;7.248;2024-02-04T15:44:26;10.20;99.90
41664;DHT22;27353;50.906;7.248;2024-02-04T15:46:51;10.20;99.90
41664;DHT22;27353;50.906;7.248;2024-02-04T15:49:19;10.20;99.90